Time;durP1;ratioP1;P1;durP2;ratioP2;P2;SDS_P1;SDS_P2;PMS_P1;PMS_P2;Temp;Humidity;BMP_temperature;BMP_pressure;BME280_temperature;BME280_humidity;BME280_pressure;Samples;Min_cycle;Max_cycle;Signal;HPM_P1;HPM_P2
2022/06/16 00:00:14;;;;;;;9.05;1.95;;;26.80;64.10;;;;;;6244182;23;20315;-89
2022/06/16 00:02:48;;;;;;;2.88;1.80;;;26.70;64.00;;;;;;6244727;23;20019;-87
2022/06/16 00:05:17;;;;;;;3.33;2.10;;;26.70;63.80;;;;;;6245857;22;20082;-87
2022/06/16 00:07:43;;;;;;;3.42;1.90;;;26.70;63.80;;;;;;6246493;23;20065;-88
2022/06/16 00:10:10;;;;;;;2.95;2.05;;;26.70;63.70;;;;;;6246284;23;20724;-88
2022/06/16 00:12:37;;;;;;;2.42;2.10;;;26.70;63.70;;;;;;6246350;23;20079;-88
2022/06/16 00:15:04;;;;;;;2.28;1.85;;;26.70;63.90;;;;;;6246566;23;20003;-88
2022/06/16 00:17:30;;;;;;;5.13;2.28;;;26.70;64.00;;;;;;6268891;22;20004;-83
2022/06/16 00:19:56;;;;;;;2.90;2.10;;;26.60;64.20;;;;;;6244943;23;20058;-84
2022/06/16 00:25:43;;;;;;;4.03;2.35;;;26.60;64.20;;;;;;6244912;23;20004;-83
2022/06/16 00:28:09;;;;;;;4.57;2.28;;;26.60;64.10;;;;;;6245698;23;20004;-84
2022/06/16 00:30:35;;;;;;;3.75;2.17;;;26.50;64.10;;;;;;6245363;23;20457;-84
2022/06/16 00:33:01;;;;;;;3.70;2.67;;;26.50;64.00;;;;;;6268918;22;20043;-83
2022/06/16 00:35:26;;;;;;;2.78;2.30;;;26.50;64.20;;;;;;6244778;23;20079;-83
2022/06/16 00:37:52;;;;;;;3.17;2.20;;;26.50;64.50;;;;;;6245048;23;19996;-83
2022/06/16 00:40:18;;;;;;;3.25;2.50;;;26.40;64.20;;;;;;6244848;23;20001;-82
2022/06/16 00:42:44;;;;;;;3.53;3.10;;;26.40;64.10;;;;;;6245328;23;20385;-83
2022/06/16 00:45:45;;;;;;;4.25;2.65;;;26.40;64.50;;;;;;6245108;23;20011;-83
2022/06/16 00:48:28;;;;;;;4.40;2.88;;;26.40;64.60;;;;;;6245965;23;20080;-84
2022/06/16 00:51:05;;;;;;;4.25;3.33;;;26.40;64.70;;;;;;6245442;23;20075;-83
2022/06/16 00:53:32;;;;;;;6.82;4.25;;;26.40;65.00;;;;;;6245089;23;20042;-80
2022/06/16 00:55:58;;;;;;;4.40;3.65;;;26.40;65.40;;;;;;6269266;22;20087;-80
2022/06/16 00:58:25;;;;;;;8.43;6.25;;;26.40;65.30;;;;;;6245267;23;20019;-80
2022/06/16 01:00:52;;;;;;;6.55;4.15;;;26.30;67.40;;;;;;6244790;23;20004;-80
2022/06/16 01:04:51;;;;;;;4.28;3.25;;;26.00;67.80;;;;;;6245693;23;20004;-80
2022/06/16 01:06:16;;;;;;;5.15;3.13;;;26.00;67.20;;;;;;6244642;23;20012;-80
2022/06/16 01:08:42;;;;;;;7.40;5.18;;;26.00;67.50;;;;;;6245333;23;20295;-81
2022/06/16 01:13:41;;;;;;;5.57;4.45;;;25.90;70.10;;;;;;6244724;23;20012;-81
2022/06/16 01:14:10;;;;;;;8.10;4.60;;;25.60;70.60;;;;;;6245148;23;20016;-82
2022/06/16 01:16:42;;;;;;;4.72;3.58;;;25.60;70.30;;;;;;6245128;23;20062;-82
2022/06/16 01:19:32;;;;;;;5.65;4.10;;;25.50;70.30;;;;;;6245785;23;20012;-82
2022/06/16 01:22:06;;;;;;;4.93;4.10;;;25.60;70.60;;;;;;6244927;23;20038;-81
2022/06/16 01:24:44;;;;;;;4.25;3.55;;;25.50;70.80;;;;;;6244624;23;20082;-80
2022/06/16 01:27:18;;;;;;;5.63;3.75;;;25.40;70.70;;;;;;6245300;23;20402;-81
2022/06/16 01:30:05;;;;;;;6.00;3.78;;;25.40;70.40;;;;;;6246734;23;20000;-82
2022/06/16 01:33:06;;;;;;;6.38;3.95;;;25.40;70.50;;;;;;6246582;23;20004;-81
2022/06/16 01:35:50;;;;;;;4.80;3.90;;;25.50;70.60;;;;;;6246239;23;20389;-80
2022/06/16 01:38:42;;;;;;;4.07;3.58;;;25.60;70.50;;;;;;6247233;23;20067;-81
2022/06/16 01:41:33;;;;;;;5.68;3.95;;;25.60;70.90;;;;;;6245675;23;20000;-80
2022/06/16 01:44:07;;;;;;;4.22;3.80;;;25.60;71.60;;;;;;6247208;23;20410;-81
2022/06/16 01:46:39;;;;;;;8.38;3.83;;;25.70;70.50;;;;;;6246312;23;20494;-80
2022/06/16 01:49:16;;;;;;;5.15;3.92;;;25.70;70.70;;;;;;6247185;23;19997;-80
2022/06/16 01:51:45;;;;;;;6.10;3.97;;;25.70;70.60;;;;;;6246605;23;20403;-81
2022/06/16 01:54:29;;;;;;;4.43;3.70;;;25.70;70.70;;;;;;6247685;23;20025;-81
2022/06/16 01:57:03;;;;;;;6.60;5.05;;;25.70;71.00;;;;;;6247148;23;20003;-81
2022/06/16 01:59:55;;;;;;;5.60;4.55;;;25.70;71.80;;;;;;6246306;22;20001;-81
2022/06/16 02:02:24;;;;;;;4.72;4.10;;;25.50;71.80;;;;;;6245816;23;20433;-81
2022/06/16 02:04:57;;;;;;;8.50;6.97;;;25.50;72.40;;;;;;6246895;23;20122;-81
2022/06/16 02:07:32;;;;;;;5.38;4.43;;;25.40;72.70;;;;;;6246801;23;20028;-81
2022/06/16 02:10:01;;;;;;;8.02;4.93;;;25.40;71.90;;;;;;6246530;23;20007;-81
2022/06/16 02:15:53;;;;;;;5.82;5.25;;;25.40;72.10;;;;;;6246876;23;20015;-81
2022/06/16 02:18:27;;;;;;;6.03;4.72;;;25.40;72.90;;;;;;6246210;23;20023;-82
2022/06/16 02:21:04;;;;;;;5.07;4.57;;;25.40;72.50;;;;;;6245808;23;20091;-81
2022/06/16 02:23:30;;;;;;;5.60;4.72;;;25.40;72.40;;;;;;6246173;23;20007;-80
2022/06/16 02:25:57;;;;;;;5.10;4.53;;;25.40;72.30;;;;;;6247221;23;20010;-79
2022/06/16 02:28:25;;;;;;;5.97;5.13;;;25.40;72.40;;;;;;6246453;23;20079;-79
2022/06/16 02:31:09;;;;;;;5.57;4.68;;;25.50;72.60;;;;;;6246382;23;20004;-79
2022/06/16 02:33:49;;;;;;;6.47;4.80;;;25.40;72.90;;;;;;6245319;23;20008;-79
2022/06/16 02:36:18;;;;;;;6.00;5.00;;;25.40;72.80;;;;;;6246412;23;20046;-79
2022/06/16 02:39:00;;;;;;;7.05;5.03;;;25.40;72.90;;;;;;6246394;23;19997;-79
2022/06/16 02:41:47;;;;;;;5.68;5.10;;;25.40;73.60;;;;;;6246416;23;20414;-79
2022/06/16 02:44:28;;;;;;;5.90;5.35;;;25.30;73.50;;;;;;6245992;23;20021;-80
2022/06/16 02:47:20;;;;;;;17.25;11.88;;;25.30;74.40;;;;;;6269862;22;20001;-82
2022/06/16 02:49:57;;;;;;;13.10;11.80;;;25.00;75.50;;;;;;6242983;23;20010;-81
2022/06/16 02:52:39;;;;;;;9.68;7.30;;;24.70;76.70;;;;;;6218897;23;20083;-81
2022/06/16 02:55:08;;;;;;;12.43;10.65;;;24.70;76.80;;;;;;6245351;23;20076;-81
2022/06/16 02:57:39;;;;;;;9.43;8.50;;;24.60;77.70;;;;;;6246009;23;20067;-82
2022/06/16 03:00:10;;;;;;;6.90;6.20;;;24.30;78.50;;;;;;6245897;23;20080;-82
2022/06/16 03:02:38;;;;;;;9.27;6.30;;;24.40;77.60;;;;;;6246323;23;20004;-83
2022/06/16 03:05:05;;;;;;;6.93;6.22;;;24.50;77.50;;;;;;6246018;23;20034;-82
2022/06/16 03:07:33;;;;;;;7.38;6.40;;;24.60;76.70;;;;;;6245706;23;20198;-82
2022/06/16 03:10:00;;;;;;;7.10;6.38;;;24.70;76.80;;;;;;6245711;23;20445;-82
2022/06/16 03:12:26;;;;;;;8.32;6.75;;;24.80;76.20;;;;;;6245793;23;20085;-82
2022/06/16 03:14:52;;;;;;;8.40;6.90;;;24.80;76.00;;;;;;6246160;23;20000;-83
2022/06/16 03:17:18;;;;;;;6.80;6.13;;;24.90;75.90;;;;;;6246160;23;20000;-83
2022/06/16 03:19:44;;;;;;;8.13;6.18;;;24.90;75.70;;;;;;6246276;23;20003;-82
2022/06/16 03:22:10;;;;;;;13.75;9.32;;;25.00;75.80;;;;;;6244710;23;20075;-83
2022/06/16 03:24:37;;;;;;;10.82;9.77;;;24.80;77.70;;;;;;6246060;23;20000;-83
2022/06/16 03:27:05;;;;;;;7.80;7.10;;;24.70;78.30;;;;;;6245884;23;20004;-83
2022/06/16 03:29:30;;;;;;;7.50;6.80;;;24.60;77.40;;;;;;6245698;23;20004;-83
2022/06/16 03:31:56;;;;;;;9.02;7.72;;;24.60;77.40;;;;;;6245195;23;20075;-83
2022/06/16 03:34:23;;;;;;;8.07;6.68;;;24.60;77.50;;;;;;6245143;23;20410;-83
2022/06/16 03:36:49;;;;;;;8.10;7.13;;;24.70;77.00;;;;;;6245834;23;20050;-84
2022/06/16 03:39:14;;;;;;;8.43;7.65;;;24.70;76.90;;;;;;6245370;23;20365;-83
2022/06/16 03:41:40;;;;;;;7.90;7.10;;;24.80;76.80;;;;;;6244577;23;20035;-84
2022/06/16 03:44:06;;;;;;;8.18;7.38;;;24.80;76.70;;;;;;6245211;23;19996;-82
2022/06/16 03:46:32;;;;;;;7.75;6.95;;;24.90;76.70;;;;;;6245659;23;20004;-82
2022/06/16 03:48:58;;;;;;;8.13;7.25;;;24.80;76.80;;;;;;6244837;23;20004;-83
2022/06/16 03:51:24;;;;;;;9.40;7.88;;;24.80;76.90;;;;;;6245075;23;20003;-82
2022/06/16 03:53:49;;;;;;;9.38;8.48;;;24.80;76.70;;;;;;6245118;23;20014;-81
2022/06/16 03:56:15;;;;;;;12.70;10.55;;;24.80;76.90;;;;;;6246147;23;20000;-80
2022/06/16 03:58:41;;;;;;;9.07;7.95;;;24.80;77.70;;;;;;6245556;23;19996;-80
2022/06/16 04:01:07;;;;;;;9.70;8.13;;;24.70;77.10;;;;;;6245531;23;20004;-81
2022/06/16 04:06:18;;;;;;;9.00;7.70;;;24.70;77.80;;;;;;6245880;23;20078;-81
2022/06/16 04:08:43;;;;;;;10.30;8.82;;;24.70;77.70;;;;;;6245711;23;20027;-80
2022/06/16 04:11:28;;;;;;;15.65;14.00;;;24.70;77.80;;;;;;6244587;23;20120;-80
2022/06/16 04:13:57;;;;;;;11.32;9.85;;;24.60;78.50;;;;;;6218659;23;20475;-83
2022/06/16 04:16:23;;;;;;;9.00;7.47;;;24.50;78.90;;;;;;6245508;23;20003;-80
2022/06/16 04:18:49;;;;;;;7.80;7.00;;;24.40;78.50;;;;;;6246102;23;20410;-81
2022/06/16 04:21:14;;;;;;;9.13;7.57;;;24.50;78.10;;;;;;6244974;23;20004;-82
2022/06/16 04:23:40;;;;;;;8.13;6.70;;;24.50;78.20;;;;;;6245580;23;20437;-81
2022/06/16 04:26:06;;;;;;;10.90;8.15;;;24.50;77.90;;;;;;6243872;23;20008;-81
2022/06/16 04:28:32;;;;;;;10.85;8.15;;;24.60;78.20;;;;;;6245403;23;20362;-81
2022/06/16 04:30:58;;;;;;;9.98;7.35;;;24.60;78.10;;;;;;6245627;23;20008;-81
2022/06/16 04:33:25;;;;;;;7.70;7.00;;;24.50;77.90;;;;;;6244559;23;20422;-81
2022/06/16 04:35:51;;;;;;;8.45;7.47;;;24.50;77.70;;;;;;6246239;23;20028;-81
2022/06/16 04:38:17;;;;;;;15.25;8.60;;;24.60;78.00;;;;;;6245390;23;20006;-81
2022/06/16 04:40:43;;;;;;;14.88;12.52;;;24.50;78.00;;;;;;6244602;23;20028;-80
2022/06/16 04:43:09;;;;;;;25.90;17.92;;;24.50;78.40;;;;;;6240253;23;20012;-81
2022/06/16 04:45:34;;;;;;;15.50;10.52;;;24.20;79.20;;;;;;6217605;23;20430;-81
2022/06/16 04:48:00;;;;;;;18.20;11.95;;;23.90;80.40;;;;;;6243611;23;20046;-83
2022/06/16 04:50:26;;;;;;;11.63;8.73;;;23.90;80.60;;;;;;6245070;23;20000;-83
2022/06/16 04:52:51;;;;;;;12.90;11.40;;;23.90;80.70;;;;;;6243342;23;20377;-83
2022/06/16 04:55:17;;;;;;;9.88;8.50;;;23.80;80.70;;;;;;6244158;23;20361;-82
2022/06/16 04:57:43;;;;;;;12.15;10.95;;;23.80;80.90;;;;;;6244061;23;20548;-82
2022/06/16 05:00:13;;;;;;;10.43;7.57;;;23.90;80.70;;;;;;6244683;23;20024;-83
2022/06/16 05:02:39;;;;;;;10.88;9.43;;;23.90;80.50;;;;;;6243928;23;20001;-82
2022/06/16 05:05:06;;;;;;;10.05;9.05;;;23.80;80.20;;;;;;6246634;23;20101;-83
2022/06/16 05:07:32;;;;;;;9.50;8.57;;;23.90;80.00;;;;;;6246091;23;20000;-83
2022/06/16 05:09:57;;;;;;;16.05;13.40;;;23.90;79.80;;;;;;6245692;23;20015;-83
2022/06/16 05:12:23;;;;;;;10.82;9.73;;;23.90;79.80;;;;;;6245968;23;20071;-83
2022/06/16 05:14:49;;;;;;;8.80;7.50;;;23.90;79.70;;;;;;6246556;23;20075;-84
2022/06/16 05:17:15;;;;;;;10.57;9.40;;;24.00;79.50;;;;;;6245754;23;19996;-89
2022/06/16 05:19:41;;;;;;;12.85;11.55;;;24.00;79.20;;;;;;6246835;23;20075;-85
2022/06/16 05:22:07;;;;;;;10.05;8.50;;;24.00;79.00;;;;;;6244378;23;20035;-84
2022/06/16 05:24:33;;;;;;;8.75;7.93;;;24.00;78.80;;;;;;6244012;23;20004;-82
2022/06/16 05:27:01;;;;;;;9.73;6.88;;;24.10;78.60;;;;;;6245977;23;20013;-83
2022/06/16 05:29:27;;;;;;;10.18;6.35;;;24.20;78.50;;;;;;6246762;23;20007;-82
2022/06/16 05:31:52;;;;;;;8.23;7.32;;;24.30;78.00;;;;;;6247266;23;20043;-88
2022/06/16 05:34:18;;;;;;;7.43;6.07;;;24.40;77.70;;;;;;6247945;23;20030;-88
2022/06/16 05:36:47;;;;;;;7.57;6.78;;;24.50;77.80;;;;;;6247290;23;20065;-90
2022/06/16 05:39:13;;;;;;;7.55;6.82;;;24.60;77.40;;;;;;6247950;23;20003;-84
2022/06/16 05:41:41;;;;;;;7.68;5.95;;;24.70;77.00;;;;;;6247434;23;20000;-86
2022/06/16 05:44:07;;;;;;;7.43;6.70;;;24.70;76.70;;;;;;6217238;23;20345;-86
2022/06/16 05:46:33;;;;;;;7.20;5.85;;;24.80;76.70;;;;;;6217135;23;20024;-87
2022/06/16 05:48:59;;;;;;;7.82;6.18;;;24.80;76.30;;;;;;6216370;23;19997;-89
2022/06/16 05:51:24;;;;;;;7.25;6.38;;;24.90;76.40;;;;;;6217229;23;20001;-89
2022/06/16 05:53:51;;;;;;;9.55;7.65;;;25.00;76.30;;;;;;6216883;23;20015;-86
2022/06/16 05:56:17;;;;;;;9.95;7.85;;;25.00;76.00;;;;;;6216522;23;20008;-86
2022/06/16 05:58:43;;;;;;;6.25;5.65;;;25.10;75.90;;;;;;6216580;23;20001;-87
2022/06/16 06:01:10;;;;;;;7.93;5.00;;;25.10;75.60;;;;;;6215092;23;20477;-87
2022/06/16 06:03:40;;;;;;;6.25;5.57;;;25.10;75.60;;;;;;6215449;23;20004;-86
2022/06/16 06:06:07;;;;;;;6.15;5.50;;;25.20;75.30;;;;;;6216787;23;20011;-89
2022/06/16 06:17:03;;;;;;;6.82;5.10;;;25.40;74.80;;;;;;6216194;23;20058;-86
2022/06/16 06:19:31;;;;;;;7.60;4.47;;;25.40;74.40;;;;;;6215183;23;20000;-85
2022/06/16 06:22:17;;;;;;;4.97;3.97;;;25.50;74.50;;;;;;6216366;23;20445;-86
2022/06/16 06:24:46;;;;;;;4.32;3.75;;;25.50;74.20;;;;;;6215842;23;20001;-85
2022/06/16 06:27:16;;;;;;;4.72;3.53;;;25.50;74.10;;;;;;6264772;22;20083;-84
2022/06/16 06:29:44;;;;;;;5.57;4.65;;;25.60;74.00;;;;;;6214367;22;20087;-84
2022/06/16 06:32:12;;;;;;;5.97;4.95;;;25.70;73.70;;;;;;6215480;23;20079;-82
2022/06/16 06:34:42;;;;;;;5.47;4.95;;;25.70;73.30;;;;;;6239786;23;20015;-81
2022/06/16 06:37:09;;;;;;;8.73;6.80;;;25.80;73.50;;;;;;6215442;23;20062;-82
2022/06/16 06:39:35;;;;;;;8.30;6.55;;;25.80;73.50;;;;;;6215324;23;20004;-82
2022/06/16 06:42:04;;;;;;;11.43;6.57;;;25.80;73.30;;;;;;6220465;23;20082;-82
2022/06/16 06:44:31;;;;;;;10.27;7.43;;;25.90;73.20;;;;;;6270638;22;20311;-82
2022/06/16 06:46:57;;;;;;;10.13;6.78;;;25.90;73.00;;;;;;6246199;23;20011;-81
2022/06/16 06:49:23;;;;;;;10.00;5.75;;;26.00;72.80;;;;;;6243847;23;20008;-83
2022/06/16 06:51:49;;;;;;;9.25;5.82;;;26.00;72.40;;;;;;6244869;23;20076;-82
2022/06/16 06:54:15;;;;;;;9.07;5.13;;;26.00;72.20;;;;;;6246486;23;20000;-84
2022/06/16 06:56:41;;;;;;;7.90;4.82;;;26.10;72.00;;;;;;6245498;23;20067;-82
2022/06/16 06:59:13;;;;;;;6.40;4.10;;;26.20;71.90;;;;;;6245799;23;20292;-82
2022/06/16 07:01:39;;;;;;;10.57;4.60;;;26.20;71.90;;;;;;6246139;23;20000;-82
2022/06/16 07:04:05;;;;;;;6.75;4.38;;;26.20;71.80;;;;;;6246350;23;20489;-81
2022/06/16 07:06:31;;;;;;;9.55;5.30;;;26.30;71.60;;;;;;6246029;23;20010;-81
2022/06/16 07:08:57;;;;;;;7.18;5.05;;;26.30;71.40;;;;;;6239295;23;20011;-81
2022/06/16 07:11:23;;;;;;;6.30;4.45;;;26.40;71.20;;;;;;6244057;23;20018;-83
2022/06/16 07:13:49;;;;;;;5.97;4.13;;;26.40;71.00;;;;;;6242816;23;20099;-82
2022/06/16 07:16:15;;;;;;;5.72;4.10;;;26.50;70.90;;;;;;6267240;22;20034;-82
2022/06/16 07:18:41;;;;;;;7.53;4.72;;;26.50;70.70;;;;;;6242740;23;20051;-81
2022/06/16 07:21:06;;;;;;;6.18;4.90;;;26.60;70.70;;;;;;6243789;23;20050;-80
2022/06/16 07:23:32;;;;;;;11.27;4.78;;;26.60;71.20;;;;;;6243571;23;20439;-80
2022/06/16 07:25:58;;;;;;;8.27;4.95;;;26.60;70.90;;;;;;6242871;23;20011;-80
2022/06/16 07:28:24;;;;;;;8.75;4.50;;;26.70;70.90;;;;;;6245171;23;20004;-80
2022/06/16 07:30:50;;;;;;;8.70;4.97;;;26.70;70.80;;;;;;6245539;23;20015;-80
2022/06/16 07:33:16;;;;;;;8.27;4.38;;;26.80;70.70;;;;;;6268783;22;20004;-80
2022/06/16 07:35:43;;;;;;;6.72;3.97;;;26.80;70.50;;;;;;6244057;23;20010;-80
2022/06/16 07:38:11;;;;;;;7.70;4.30;;;26.80;70.20;;;;;;6243297;23;20062;-80
2022/06/16 07:40:37;;;;;;;5.10;3.67;;;26.90;70.10;;;;;;6244480;23;20071;-80
2022/06/16 07:43:02;;;;;;;5.32;4.13;;;27.00;70.20;;;;;;6245013;23;20023;-80
2022/06/16 07:45:29;;;;;;;5.82;3.58;;;27.00;69.60;;;;;;6244975;23;20004;-79
2022/06/16 07:47:57;;;;;;;4.18;2.97;;;27.00;69.60;;;;;;6243346;23;20008;-81
2022/06/16 07:50:24;;;;;;;6.93;3.92;;;27.10;70.00;;;;;;6244988;23;20004;-80
2022/06/16 07:52:49;;;;;;;4.28;2.83;;;27.10;69.60;;;;;;6244958;23;20008;-81
2022/06/16 07:55:17;;;;;;;3.90;2.88;;;27.20;69.20;;;;;;6238982;23;20003;-80
2022/06/16 07:57:46;;;;;;;4.45;2.85;;;27.20;69.00;;;;;;6245082;23;20055;-79
2022/06/16 08:00:16;;;;;;;4.10;3.03;;;27.20;67.80;;;;;;6246178;23;19996;-79
2022/06/16 08:02:42;;;;;;;3.63;2.63;;;27.30;67.30;;;;;;6246019;23;20079;-79
2022/06/16 08:05:10;;;;;;;5.45;4.28;;;27.30;67.50;;;;;;6267886;22;20050;-79
2022/06/16 08:07:36;;;;;;;5.28;3.38;;;27.30;66.70;;;;;;6245210;23;20053;-79
2022/06/16 08:10:04;;;;;;;5.07;2.78;;;27.30;67.20;;;;;;6245751;23;20032;-79
2022/06/16 08:12:30;;;;;;;4.68;3.55;;;27.40;67.60;;;;;;6244235;23;20012;-79
2022/06/16 08:14:55;;;;;;;6.03;2.85;;;27.40;67.60;;;;;;6246137;23;20035;-79
2022/06/16 08:17:26;;;;;;;3.55;2.55;;;27.50;67.10;;;;;;6244871;23;20011;-79
2022/06/16 08:19:52;;;;;;;3.17;2.03;;;27.60;65.90;;;;;;6245584;23;20000;-79
2022/06/16 08:22:18;;;;;;;4.95;2.67;;;27.60;65.50;;;;;;6245488;23;20000;-80
2022/06/16 08:24:44;;;;;;;3.15;2.28;;;27.70;65.10;;;;;;6245466;23;20323;-81
2022/06/16 08:27:11;;;;;;;3.00;2.70;;;27.70;65.00;;;;;;6245341;23;20024;-79
2022/06/16 08:29:39;;;;;;;3.47;2.70;;;27.80;65.00;;;;;;6246095;22;20008;-79
2022/06/16 08:32:06;;;;;;;7.63;3.17;;;27.80;65.50;;;;;;6245721;23;20004;-80
2022/06/16 08:34:32;;;;;;;8.02;3.60;;;27.90;65.10;;;;;;6246052;23;20007;-80
2022/06/16 08:36:57;;;;;;;9.70;3.53;;;27.90;65.00;;;;;;6245483;23;20350;-79
2022/06/16 08:39:23;;;;;;;6.38;3.72;;;28.00;65.40;;;;;;6246008;23;20067;-79
2022/06/16 08:41:53;;;;;;;6.95;3.78;;;28.10;65.70;;;;;;6246022;23;19996;-80
2022/06/16 08:44:42;;;;;;;6.68;3.50;;;28.20;66.20;;;;;;6245861;23;19996;-79
2022/06/16 08:47:20;;;;;;;7.65;4.00;;;28.30;66.60;;;;;;6245541;23;20000;-80
2022/06/16 08:50:23;;;;;;;5.55;3.90;;;28.30;66.30;;;;;;6246005;23;19996;-83
2022/06/16 08:52:54;;;;;;;4.68;2.95;;;28.40;66.00;;;;;;6217490;23;20023;-80
2022/06/16 08:55:26;;;;;;;5.00;2.97;;;28.40;66.00;;;;;;6245379;23;20304;-79
2022/06/16 08:58:03;;;;;;;6.78;3.28;;;28.50;66.30;;;;;;6245820;23;20414;-79
2022/06/16 09:00:38;;;;;;;3.70;2.80;;;28.60;66.70;;;;;;6245816;23;20050;-79
2022/06/16 09:03:42;;;;;;;4.65;3.15;;;28.60;66.30;;;;;;6245210;23;20046;-80
2022/06/16 09:06:22;;;;;;;5.00;3.97;;;28.60;65.70;;;;;;6244839;22;20005;-78
2022/06/16 09:09:15;;;;;;;9.57;3.95;;;28.70;65.40;;;;;;6246069;23;20000;-79
2022/06/16 09:12:03;;;;;;;4.63;3.20;;;28.80;65.40;;;;;;6245556;23;20050;-78
2022/06/16 09:15:11;;;;;;;3.70;2.90;;;28.90;64.50;;;;;;6245588;23;20050;-80
2022/06/16 09:18:01;;;;;;;8.70;3.05;;;28.90;64.50;;;;;;6218734;23;20012;-78
2022/06/16 09:20:47;;;;;;;3.78;2.50;;;28.90;63.50;;;;;;6246120;23;20004;-80
2022/06/16 09:23:34;;;;;;;5.20;2.70;;;28.90;64.00;;;;;;6245207;23;20097;-78
2022/06/16 09:26:08;;;;;;;6.18;3.10;;;29.00;63.90;;;;;;6245154;23;20004;-80
2022/06/16 09:28:57;;;;;;;3.83;2.22;;;29.10;63.70;;;;;;6244851;23;20036;-79
2022/06/16 09:31:34;;;;;;;3.67;2.60;;;29.20;62.80;;;;;;6218286;23;20004;-79
2022/06/16 09:35:02;;;;;;;3.65;2.20;;;29.20;62.20;;;;;;6245226;23;20000;-79
2022/06/16 09:37:53;;;;;;;4.20;2.45;;;29.20;61.90;;;;;;6123814;23;20318;-80
2022/06/16 09:40:50;;;;;;;4.55;3.05;;;29.20;62.20;;;;;;6242344;23;20004;-78
2022/06/16 09:43:42;;;;;;;3.38;2.17;;;29.20;63.00;;;;;;6232554;23;20024;-81
2022/06/16 09:46:32;;;;;;;3.35;1.98;;;29.30;62.40;;;;;;6245574;23;20000;-81
2022/06/16 09:49:05;;;;;;;1.92;1.80;;;29.40;62.40;;;;;;6246075;23;20010;-80
2022/06/16 09:51:37;;;;;;;3.53;2.20;;;29.50;62.90;;;;;;6219757;23;20018;-81
2022/06/16 09:54:14;;;;;;;4.00;1.85;;;29.60;62.90;;;;;;6246114;23;20015;-80
2022/06/16 09:56:49;;;;;;;4.75;2.25;;;29.70;62.50;;;;;;6244244;23;19996;-78
2022/06/16 09:59:25;;;;;;;3.05;2.15;;;29.80;62.10;;;;;;6241286;23;20008;-78
2022/06/16 10:02:06;;;;;;;1.80;1.58;;;29.90;61.90;;;;;;6247410;23;20001;-81
2022/06/16 10:04:32;;;;;;;3.75;2.55;;;30.00;61.00;;;;;;6247552;23;20003;-80
2022/06/16 10:07:14;;;;;;;4.22;2.20;;;30.00;60.20;;;;;;6248223;23;19996;-80
2022/06/16 10:09:49;;;;;;;3.28;2.17;;;30.00;59.60;;;;;;6247202;23;20070;-80
2022/06/16 10:12:36;;;;;;;4.20;2.10;;;30.00;59.30;;;;;;6270307;22;20009;-80
2022/06/16 10:15:11;;;;;;;3.85;2.25;;;30.00;59.20;;;;;;6245932;23;20007;-82
2022/06/16 10:17:39;;;;;;;2.90;1.80;;;30.00;58.40;;;;;;6220075;23;20444;-80
2022/06/16 10:20:05;;;;;;;2.78;1.73;;;29.90;57.60;;;;;;6246083;23;20314;-80
2022/06/16 10:22:35;;;;;;;4.40;2.08;;;29.90;56.50;;;;;;6269946;22;20082;-78
2022/06/16 10:25:10;;;;;;;;;;;29.90;56.20;;;;;;6246349;23;20012;-79
2022/06/16 10:27:47;;;;;;;4.13;2.05;;;29.90;55.30;;;;;;6247120;23;19906;-85
2022/06/16 10:30:42;;;;;;;2.05;1.80;;;29.80;56.00;;;;;;6246561;23;19993;-85
2022/06/16 10:33:20;;;;;;;3.33;1.88;;;29.80;55.30;;;;;;6245508;22;20012;-83
2022/06/16 10:35:59;;;;;;;3.88;1.83;;;29.80;55.90;;;;;;6247382;23;20024;-84
2022/06/16 10:38:29;;;;;;;4.83;1.60;;;29.80;56.20;;;;;;6218982;23;20050;-84
2022/06/16 10:40:55;;;;;;;2.15;1.95;;;29.90;56.60;;;;;;6246707;23;20050;-84
2022/06/16 10:43:22;;;;;;;3.40;1.90;;;30.00;56.40;;;;;;6245970;23;20016;-84
2022/06/16 10:46:18;;;;;;;2.33;1.60;;;30.20;56.40;;;;;;6247053;23;20099;-84
2022/06/16 10:48:55;;;;;;;1.98;1.77;;;30.30;55.10;;;;;;6246116;22;20032;-84
2022/06/16 10:51:26;;;;;;;4.47;2.25;;;30.50;55.70;;;;;;6246289;23;20023;-84
2022/06/16 10:54:12;;;;;;;2.83;1.85;;;30.60;55.40;;;;;;6245759;23;20004;-84
2022/06/16 10:56:39;;;;;;;1.83;1.63;;;30.60;55.60;;;;;;6246036;23;19996;-84
2022/06/16 10:59:17;;;;;;;3.10;1.75;;;30.60;56.80;;;;;;6270019;22;20438;-84
2022/06/16 11:01:56;;;;;;;2.25;1.88;;;30.70;56.50;;;;;;6244542;23;19996;-84
2022/06/16 11:04:25;;;;;;;2.55;1.83;;;30.90;56.50;;;;;;6244962;23;20000;-85
2022/06/16 11:06:56;;;;;;;2.38;1.83;;;31.10;56.70;;;;;;6244293;23;20000;-84
2022/06/16 11:09:25;;;;;;;3.47;1.75;;;31.20;56.90;;;;;;6244949;23;20008;-85
2022/06/16 11:11:57;;;;;;;2.72;1.98;;;31.30;56.50;;;;;;6245424;23;20004;-81
2022/06/16 11:15:03;;;;;;;4.72;2.03;;;31.20;56.40;;;;;;6217992;23;20004;-79
2022/06/16 11:17:40;;;;;;;2.53;2.08;;;31.20;55.60;;;;;;6268809;22;20434;-81
2022/06/16 11:20:17;;;;;;;3.10;2.03;;;31.20;56.20;;;;;;6244799;23;20000;-80
2022/06/16 11:22:46;;;;;;;4.32;1.90;;;31.10;56.00;;;;;;6244584;23;20008;-81
2022/06/16 11:25:28;;;;;;;5.30;1.97;;;31.10;55.70;;;;;;6242799;23;20357;-80
2022/06/16 11:28:12;;;;;;;4.15;2.03;;;31.10;56.10;;;;;;6244452;23;20004;-83
2022/06/16 11:30:53;;;;;;;2.92;2.30;;;31.30;56.00;;;;;;6217290;23;20403;-84
2022/06/16 11:36:24;;;;;;;2.80;2.50;;;32.10;56.00;;;;;;6245678;23;20019;-84
2022/06/16 11:39:16;;;;;;;5.10;2.30;;;32.50;53.80;;;;;;6245494;23;20459;-85
2022/06/16 11:41:52;;;;;;;2.78;1.95;;;33.10;55.10;;;;;;6243265;23;20087;-84
2022/06/16 11:44:33;;;;;;;3.33;2.10;;;33.50;53.10;;;;;;6245487;23;20017;-84
2022/06/16 11:47:22;;;;;;;1.98;1.77;;;33.60;52.80;;;;;;6245677;23;20035;-81
2022/06/16 11:49:56;;;;;;;3.00;2.25;;;33.70;50.70;;;;;;6246900;23;20066;-81
2022/06/16 11:52:29;;;;;;;3.42;2.08;;;33.60;51.10;;;;;;6246807;23;20326;-82
2022/06/16 11:55:04;;;;;;;4.25;2.20;;;33.50;50.80;;;;;;6219995;23;20326;-82
2022/06/16 11:58:09;;;;;;;4.85;2.00;;;33.40;50.90;;;;;;6245858;23;20006;-81
2022/06/16 12:00:50;;;;;;;2.92;1.88;;;33.40;51.20;;;;;;6246591;23;20073;-85
2022/06/16 12:03:50;;;;;;;3.08;2.10;;;33.50;50.30;;;;;;6246323;23;20015;-84
2022/06/16 12:06:39;;;;;;;3.20;2.03;;;33.70;51.60;;;;;;6241153;22;20384;-84
2022/06/16 12:09:13;;;;;;;4.00;3.03;;;34.00;51.10;;;;;;6229451;23;20008;-84
2022/06/16 12:12:07;;;;;;;2.55;2.35;;;34.10;51.50;;;;;;6218104;23;20234;-84
2022/06/16 12:14:48;;;;;;;4.70;2.25;;;34.50;51.30;;;;;;6245918;23;20004;-84
2022/06/16 12:17:17;;;;;;;3.20;2.22;;;34.70;50.20;;;;;;6245812;23;20004;-84
2022/06/16 12:20:25;;;;;;;3.25;2.22;;;35.00;51.20;;;;;;6245387;23;20000;-84
2022/06/16 12:23:06;;;;;;;4.03;2.17;;;35.30;48.50;;;;;;6243080;23;20015;-85
2022/06/16 12:25:54;;;;;;;2.67;1.83;;;35.60;49.00;;;;;;6243926;23;20007;-85
2022/06/16 12:28:49;;;;;;;2.97;2.10;;;35.90;47.40;;;;;;6267995;22;20007;-84
2022/06/16 12:31:26;;;;;;;2.15;1.80;;;36.00;46.30;;;;;;6243738;23;20000;-84
2022/06/16 12:34:13;;;;;;;6.22;2.78;;;36.20;47.70;;;;;;6241904;23;20004;-82
2022/06/16 12:36:46;;;;;;;3.95;2.40;;;36.30;46.00;;;;;;6244485;23;20011;-81
2022/06/16 12:39:18;;;;;;;3.33;1.92;;;36.60;45.10;;;;;;6245658;23;20024;-82
2022/06/16 12:41:52;;;;;;;2.90;2.17;;;36.40;45.60;;;;;;6244300;23;20421;-82
2022/06/16 12:44:37;;;;;;;3.35;2.33;;;36.40;45.50;;;;;;6245639;23;20007;-82
2022/06/16 12:47:32;;;;;;;3.30;2.25;;;36.50;45.20;;;;;;6244589;23;20071;-82
2022/06/16 12:50:30;;;;;;;2.22;1.73;;;36.70;44.50;;;;;;6229175;23;20288;-82
2022/06/16 12:53:12;;;;;;;2.95;1.58;;;36.80;45.20;;;;;;6244528;22;20492;-82
2022/06/16 12:55:49;;;;;;;4.90;1.75;;;36.80;45.20;;;;;;6244873;23;20399;-82
2022/06/16 12:58:31;;;;;;;3.83;2.47;;;37.00;44.80;;;;;;6245112;23;20000;-81
2022/06/16 13:01:02;;;;;;;4.18;2.03;;;36.90;43.90;;;;;;6243027;23;20422;-80
2022/06/16 13:04:04;;;;;;;3.47;2.40;;;37.10;44.20;;;;;;6244779;23;20402;-81
2022/06/16 13:06:31;;;;;;;2.65;1.90;;;37.20;43.00;;;;;;6245790;23;20011;-81
2022/06/16 13:09:01;;;;;;;2.42;2.00;;;37.30;43.70;;;;;;6245580;23;20004;-81
2022/06/16 13:11:43;;;;;;;2.88;2.00;;;37.50;42.30;;;;;;6245918;23;20084;-82
2022/06/16 13:14:19;;;;;;;4.72;2.00;;;37.50;42.10;;;;;;6245034;23;20004;-81
2022/06/16 13:16:49;;;;;;;2.97;1.92;;;37.50;42.90;;;;;;6245779;23;20075;-81
2022/06/16 13:19:23;;;;;;;2.67;2.03;;;37.50;43.30;;;;;;6245485;23;19996;-81
2022/06/16 13:21:59;;;;;;;4.28;2.10;;;37.50;43.30;;;;;;6245810;23;20357;-81
2022/06/16 13:24:42;;;;;;;2.05;1.85;;;37.40;42.90;;;;;;6246223;22;20004;-81
2022/06/16 13:27:21;;;;;;;3.53;1.83;;;37.30;41.70;;;;;;6247898;23;20007;-81
2022/06/16 13:29:50;;;;;;;2.58;1.95;;;37.30;42.40;;;;;;6246972;23;19996;-81
2022/06/16 13:32:42;;;;;;;3.13;2.17;;;37.20;44.00;;;;;;6247900;23;20005;-81
2022/06/16 13:35:13;;;;;;;5.90;2.30;;;37.30;43.20;;;;;;6231163;23;20007;-81
2022/06/16 13:37:42;;;;;;;4.13;2.15;;;37.20;42.60;;;;;;6247819;23;20062;-82